Time;durP1;ratioP1;P1;durP2;ratioP2;P2;SDS_P1;SDS_P2;PMS_P1;PMS_P2;Temp;Humidity;BMP_temperature;BMP_pressure;BME280_temperature;BME280_humidity;BME280_pressure;Samples;Min_cycle;Max_cycle;Signal;HPM_P1;HPM_P2
2021/01/25 00:01:07;;;;;;;17.00;10.30;;;5.50;69.10;;;;;;5035549;28;20068;-77
2021/01/25 00:03:33;;;;;;;18.80;10.50;;;5.50;69.00;;;;;;5032482;28;20478;-70
2021/01/25 00:06:00;;;;;;;20.87;11.13;;;5.50;69.00;;;;;;5020706;28;20042;-70
2021/01/25 00:08:26;;;;;;;19.63;11.60;;;5.50;69.00;;;;;;5037685;28;20064;-71
2021/01/25 00:10:53;;;;;;;20.20;12.93;;;5.60;69.00;;;;;;5041183;28;20132;-69
2021/01/25 00:13:19;;;;;;;19.43;11.17;;;5.50;68.80;;;;;;5038542;28;20056;-72
2021/01/25 00:15:47;;;;;;;19.50;11.93;;;5.60;68.90;;;;;;5040350;28;20043;-71
2021/01/25 00:18:13;;;;;;;25.13;13.97;;;5.50;68.90;;;;;;5048976;28;20028;-70
2021/01/25 00:20:39;;;;;;;20.37;11.87;;;5.50;69.00;;;;;;5047562;28;20461;-69
2021/01/25 00:23:04;;;;;;;18.80;12.53;;;5.50;69.10;;;;;;5046191;28;20040;-74
2021/01/25 00:25:30;;;;;;;19.03;12.50;;;5.50;69.10;;;;;;5030951;28;20034;-70
2021/01/25 00:27:56;;;;;;;18.43;11.70;;;5.50;69.10;;;;;;5039586;28;20029;-70
2021/01/25 00:30:22;;;;;;;20.10;11.87;;;5.50;69.10;;;;;;5021627;28;20078;-71
2021/01/25 00:32:47;;;;;;;18.70;11.73;;;5.60;69.00;;;;;;5044202;28;20046;-70
2021/01/25 00:35:13;;;;;;;21.07;12.33;;;5.60;68.90;;;;;;5035994;28;20026;-69
2021/01/25 00:37:39;;;;;;;21.37;13.00;;;5.60;68.90;;;;;;5040809;28;20029;-70
2021/01/25 00:40:06;;;;;;;18.07;10.50;;;5.60;68.80;;;;;;5042516;28;20309;-69
2021/01/25 00:42:32;;;;;;;22.53;12.80;;;5.60;68.80;;;;;;5046067;28;20037;-69
2021/01/25 00:44:58;;;;;;;20.77;11.73;;;5.60;68.80;;;;;;5016268;28;20033;-70
2021/01/25 00:47:24;;;;;;;16.93;10.90;;;5.50;68.90;;;;;;5037157;28;20390;-70
2021/01/25 00:49:49;;;;;;;19.33;12.10;;;5.50;68.90;;;;;;5040416;28;20068;-69
2021/01/25 00:52:15;;;;;;;18.70;11.53;;;5.50;69.00;;;;;;5039827;28;20412;-70
2021/01/25 00:54:41;;;;;;;21.33;13.30;;;5.50;69.00;;;;;;5036458;28;20038;-69
2021/01/25 00:57:06;;;;;;;16.97;11.57;;;5.50;69.10;;;;;;5019606;28;20033;-69
2021/01/25 00:59:32;;;;;;;21.73;13.17;;;5.50;69.10;;;;;;5018327;28;20919;-70
2021/01/25 01:01:57;;;;;;;25.07;13.47;;;5.40;69.20;;;;;;5036459;28;20143;-70
2021/01/25 01:04:23;;;;;;;23.57;13.80;;;5.40;69.20;;;;;;5044710;28;20374;-75
2021/01/25 01:06:49;;;;;;;22.43;13.57;;;5.50;69.20;;;;;;5055016;28;20807;-69
2021/01/25 01:09:14;;;;;;;21.87;13.27;;;5.50;69.20;;;;;;5056262;28;20039;-70
2021/01/25 01:11:40;;;;;;;21.63;12.97;;;5.50;69.20;;;;;;5055518;28;20037;-71
2021/01/25 01:14:05;;;;;;;23.90;14.30;;;5.50;69.20;;;;;;5056073;28;20540;-71
2021/01/25 01:16:31;;;;;;;21.17;12.93;;;5.50;69.10;;;;;;5056509;28;20486;-71
2021/01/25 01:18:57;;;;;;;22.57;13.87;;;5.60;69.00;;;;;;5062348;28;20036;-70
2021/01/25 01:21:23;;;;;;;22.60;14.67;;;5.60;69.00;;;;;;5062909;28;20068;-69
2021/01/25 01:23:48;;;;;;;21.07;14.10;;;5.60;68.90;;;;;;5068112;28;20403;-69
2021/01/25 01:26:14;;;;;;;22.77;14.60;;;5.70;68.90;;;;;;5054591;28;20047;-69
2021/01/25 01:28:39;;;;;;;22.67;14.03;;;5.70;68.80;;;;;;5055137;28;20047;-72
2021/01/25 01:31:05;;;;;;;21.83;14.37;;;5.70;68.70;;;;;;5054097;28;20065;-72
2021/01/25 01:33:31;;;;;;;24.90;14.30;;;5.60;68.80;;;;;;5054642;28;20033;-71
2021/01/25 01:35:56;;;;;;;25.47;16.57;;;5.60;68.90;;;;;;5055560;28;20032;-70
2021/01/25 01:38:22;;;;;;;24.43;14.70;;;5.50;69.00;;;;;;5061715;28;20035;-70
2021/01/25 01:40:48;;;;;;;26.13;15.27;;;5.40;69.20;;;;;;5061647;28;20094;-69
2021/01/25 01:43:13;;;;;;;24.30;13.83;;;5.50;69.40;;;;;;5063515;28;20433;-70
2021/01/25 01:45:39;;;;;;;21.33;14.57;;;5.40;69.30;;;;;;5068981;28;20135;-70
2021/01/25 01:48:06;;;;;;;22.57;13.93;;;5.50;69.30;;;;;;5073303;28;20446;-70
2021/01/25 01:50:32;;;;;;;23.43;14.93;;;5.50;69.30;;;;;;5059174;28;20490;-69
2021/01/25 01:52:58;;;;;;;24.70;15.80;;;5.50;69.20;;;;;;5060255;28;20033;-72
2021/01/25 01:55:24;;;;;;;24.97;15.37;;;5.50;69.20;;;;;;5053597;28;20047;-70
2021/01/25 01:57:53;;;;;;;25.60;14.57;;;5.50;69.30;;;;;;5065552;28;20032;-69
2021/01/25 02:00:20;;;;;;;24.23;15.83;;;5.50;69.40;;;;;;5067113;28;20047;-70
2021/01/25 02:02:46;;;;;;;26.70;16.90;;;5.50;69.40;;;;;;5070924;28;20043;-69
2021/01/25 02:05:13;;;;;;;34.40;16.60;;;5.50;69.60;;;;;;5025482;28;20041;-69
2021/01/25 02:07:42;;;;;;;25.00;15.53;;;5.40;69.60;;;;;;5050715;28;20040;-69
2021/01/25 02:10:09;;;;;;;27.20;15.70;;;5.40;69.50;;;;;;5045586;28;20072;-70
2021/01/25 02:12:35;;;;;;;20.93;14.50;;;5.40;69.60;;;;;;5049530;28;20040;-70
2021/01/25 02:15:01;;;;;;;27.30;16.33;;;5.50;69.70;;;;;;5051229;28;20033;-70
2021/01/25 02:17:28;;;;;;;24.27;15.33;;;5.50;69.60;;;;;;5040908;28;20108;-70
2021/01/25 02:20:07;;;;;;;29.93;15.37;;;5.50;69.50;;;;;;5045799;28;20041;-70
2021/01/25 02:22:35;;;;;;;24.30;15.10;;;5.50;69.50;;;;;;5038624;28;20567;-69
2021/01/25 02:25:10;;;;;;;25.33;14.77;;;5.50;69.60;;;;;;5052644;28;20077;-71
2021/01/25 02:27:43;;;;;;;21.10;14.13;;;5.50;69.50;;;;;;5050154;28;20072;-70
2021/01/25 02:30:14;;;;;;;23.85;14.88;;;5.60;69.40;;;;;;5048093;28;20021;-70
2021/01/25 02:32:41;;;;;;;26.17;15.20;;;5.60;69.30;;;;;;5042767;28;20025;-69
2021/01/25 02:35:10;;;;;;;22.30;14.70;;;5.70;69.20;;;;;;5046626;28;20032;-71
2021/01/25 02:37:37;;;;;;;25.50;15.03;;;5.70;69.10;;;;;;5051570;28;20035;-69
2021/01/25 02:40:06;;;;;;;24.20;14.67;;;5.70;69.00;;;;;;5025898;28;20033;-69
2021/01/25 02:42:33;;;;;;;25.70;16.13;;;5.70;69.10;;;;;;5034862;28;20030;-69
2021/01/25 02:44:59;;;;;;;24.57;14.77;;;5.70;69.10;;;;;;5050153;28;20037;-70
2021/01/25 02:47:26;;;;;;;22.70;15.20;;;5.60;68.90;;;;;;5050001;28;20092;-70
2021/01/25 02:49:51;;;;;;;25.00;14.33;;;5.60;69.00;;;;;;5041099;28;20054;-76
2021/01/25 02:52:17;;;;;;;24.70;15.40;;;5.60;69.00;;;;;;5046633;28;20390;-70
2021/01/25 02:54:44;;;;;;;22.80;14.13;;;5.50;69.10;;;;;;5050241;28;20164;-69
2021/01/25 02:57:12;;;;;;;24.53;16.00;;;5.50;69.30;;;;;;5025408;28;20040;-69
2021/01/25 02:59:39;;;;;;;25.53;16.47;;;5.50;69.20;;;;;;5047762;28;20022;-70
2021/01/25 03:02:06;;;;;;;23.00;14.77;;;5.40;69.30;;;;;;5046979;28;20029;-69
2021/01/25 03:04:34;;;;;;;22.30;13.50;;;5.40;69.30;;;;;;5033358;28;20060;-70
2021/01/25 03:07:00;;;;;;;21.10;13.60;;;5.40;69.30;;;;;;5045418;28;20032;-69
2021/01/25 03:09:26;;;;;;;25.53;15.47;;;5.40;69.40;;;;;;5033992;28;20029;-70
2021/01/25 03:11:52;;;;;;;23.37;13.67;;;5.50;69.30;;;;;;5030785;28;20550;-69
2021/01/25 03:14:19;;;;;;;21.03;13.87;;;5.50;69.20;;;;;;5052138;28;20490;-69
2021/01/25 03:16:44;;;;;;;29.93;16.23;;;5.50;69.10;;;;;;5046188;28;20029;-70
2021/01/25 03:19:10;;;;;;;24.83;16.33;;;5.60;69.00;;;;;;5027859;28;20026;-71
2021/01/25 03:21:44;;;;;;;20.90;13.47;;;5.60;68.80;;;;;;5032719;28;20091;-70
2021/01/25 03:24:10;;;;;;;21.83;14.30;;;5.60;68.80;;;;;;5042865;28;20041;-69
2021/01/25 03:26:35;;;;;;;24.03;14.17;;;5.70;68.70;;;;;;5051588;28;20538;-69
2021/01/25 03:29:01;;;;;;;22.80;14.43;;;5.70;68.70;;;;;;5033658;28;20062;-69
2021/01/25 03:31:27;;;;;;;21.60;13.90;;;5.70;68.60;;;;;;5044602;28;20134;-70
2021/01/25 03:33:52;;;;;;;26.03;16.03;;;5.70;68.50;;;;;;5046805;28;20444;-70
2021/01/25 03:36:18;;;;;;;21.83;14.27;;;5.70;68.70;;;;;;5047292;28;20048;-70
2021/01/25 03:38:43;;;;;;;23.33;14.57;;;5.70;68.60;;;;;;5026455;28;20044;-69
2021/01/25 03:41:09;;;;;;;22.33;14.40;;;5.70;68.50;;;;;;5021441;28;20056;-70
2021/01/25 03:43:35;;;;;;;23.27;14.10;;;5.70;68.50;;;;;;5042634;28;20072;-69
2021/01/25 03:46:01;;;;;;;24.97;15.73;;;5.60;68.50;;;;;;5035455;28;20056;-70
2021/01/25 03:48:26;;;;;;;24.77;16.23;;;5.60;68.40;;;;;;5032163;28;20029;-70
2021/01/25 03:50:52;;;;;;;25.63;16.63;;;5.60;68.50;;;;;;5051696;28;20040;-69
2021/01/25 03:53:18;;;;;;;20.97;14.10;;;5.50;68.50;;;;;;5042919;28;20094;-69
2021/01/25 03:55:46;;;;;;;25.27;15.40;;;5.50;68.70;;;;;;5045429;28;20352;-69
2021/01/25 03:58:13;;;;;;;25.20;16.23;;;5.50;68.70;;;;;;5043811;28;20424;-71
2021/01/25 04:00:39;;;;;;;22.73;14.43;;;5.60;68.70;;;;;;5047889;28;20479;-70
2021/01/25 04:03:04;;;;;;;27.60;15.47;;;5.60;68.60;;;;;;5041058;28;20570;-70
2021/01/25 04:05:30;;;;;;;24.43;14.77;;;5.60;68.70;;;;;;5032568;28;20120;-70
2021/01/25 04:07:56;;;;;;;21.93;15.03;;;5.60;68.60;;;;;;5020460;28;20340;-72
2021/01/25 04:10:22;;;;;;;22.77;14.43;;;5.60;68.60;;;;;;5048034;28;20429;-69
2021/01/25 04:12:48;;;;;;;21.93;13.93;;;5.60;68.60;;;;;;5050808;28;20037;-69
2021/01/25 04:15:14;;;;;;;23.00;15.57;;;5.60;68.70;;;;;;5042547;28;20086;-69
2021/01/25 04:17:39;;;;;;;26.10;15.73;;;5.60;68.80;;;;;;5033044;28;20083;-72
2021/01/25 04:20:06;;;;;;;23.70;14.77;;;5.60;68.80;;;;;;5042281;28;20132;-74
2021/01/25 04:22:32;;;;;;;25.50;15.47;;;5.60;68.80;;;;;;5048623;28;20513;-69
2021/01/25 04:24:58;;;;;;;26.00;15.90;;;5.60;68.80;;;;;;5050353;28;20037;-69
2021/01/25 04:27:23;;;;;;;24.53;15.03;;;5.60;68.80;;;;;;5012794;28;20417;-71
2021/01/25 04:29:49;;;;;;;24.53;15.57;;;5.60;68.80;;;;;;5034354;28;20207;-70
2021/01/25 04:32:15;;;;;;;23.03;14.77;;;5.70;68.90;;;;;;5049848;28;20083;-70
2021/01/25 04:34:41;;;;;;;25.03;16.23;;;5.70;68.80;;;;;;5047866;28;20033;-71
2021/01/25 04:37:06;;;;;;;24.40;15.37;;;5.60;68.60;;;;;;5044274;28;20540;-70
2021/01/25 04:39:32;;;;;;;29.10;16.13;;;5.60;68.60;;;;;;5045880;28;20459;-73
2021/01/25 04:41:58;;;;;;;23.67;15.10;;;5.60;68.50;;;;;;5039919;28;20057;-70
2021/01/25 04:44:23;;;;;;;23.53;14.97;;;5.60;68.60;;;;;;5042810;28;20124;-70
2021/01/25 04:46:49;;;;;;;25.40;16.00;;;5.60;68.60;;;;;;5029234;28;20208;-69
2021/01/25 04:49:16;;;;;;;26.97;16.37;;;5.50;68.70;;;;;;5034645;28;20051;-70
2021/01/25 04:51:43;;;;;;;22.70;15.87;;;5.50;68.80;;;;;;5046667;28;20025;-70
2021/01/25 04:54:09;;;;;;;24.13;16.13;;;5.40;68.80;;;;;;5042701;28;20428;-69
2021/01/25 04:56:35;;;;;;;27.20;14.37;;;5.40;68.80;;;;;;5048083;28;20087;-70
2021/01/25 04:59:01;;;;;;;25.03;15.83;;;5.40;68.90;;;;;;5032497;28;20375;-69
2021/01/25 05:01:27;;;;;;;23.67;15.67;;;5.40;69.00;;;;;;5016510;28;20033;-75
2021/01/25 05:03:53;;;;;;;25.10;15.87;;;5.30;69.00;;;;;;5046199;28;20560;-71
2021/01/25 05:06:19;;;;;;;24.77;15.77;;;5.30;69.00;;;;;;5048446;28;20494;-70
2021/01/25 05:08:46;;;;;;;24.87;16.63;;;5.30;69.10;;;;;;5031390;28;20116;-69
2021/01/25 05:11:18;;;;;;;23.50;14.43;;;5.30;69.10;;;;;;5048238;28;20047;-70
2021/01/25 05:13:44;;;;;;;24.17;14.27;;;5.30;69.20;;;;;;5045117;28;20518;-70
2021/01/25 05:16:17;;;;;;;23.50;15.07;;;5.20;69.20;;;;;;5025430;28;20056;-70
2021/01/25 05:18:43;;;;;;;27.57;15.90;;;5.20;69.20;;;;;;5039057;28;20631;-69
2021/01/25 05:21:09;;;;;;;22.67;16.77;;;5.20;69.20;;;;;;5035725;28;20029;-69
2021/01/25 05:23:39;;;;;;;26.70;16.33;;;5.10;69.20;;;;;;5047372;28;20036;-69
2021/01/25 05:26:09;;;;;;;23.97;15.07;;;5.10;69.20;;;;;;5025822;28;20036;-69
2021/01/25 05:28:42;;;;;;;24.17;16.27;;;5.10;69.20;;;;;;5048363;28;20366;-70
2021/01/25 05:31:21;;;;;;;26.90;16.48;;;5.10;69.30;;;;;;5047469;28;20113;-69
2021/01/25 05:33:48;;;;;;;24.70;15.40;;;5.00;69.20;;;;;;5043947;28;20025;-69
2021/01/25 05:36:31;;;;;;;27.27;17.50;;;5.00;69.30;;;;;;5033644;28;20040;-69
2021/01/25 05:38:57;;;;;;;22.25;15.38;;;4.90;69.40;;;;;;5044753;28;20060;-71
2021/01/25 05:41:23;;;;;;;23.00;14.80;;;4.90;69.50;;;;;;5049423;28;20029;-69
2021/01/25 05:43:50;;;;;;;24.83;14.87;;;4.90;69.60;;;;;;5028628;28;20045;-70
2021/01/25 05:46:18;;;;;;;21.53;14.90;;;4.90;69.80;;;;;;5045605;28;20163;-70
2021/01/25 05:48:55;;;;;;;25.83;15.57;;;4.80;69.90;;;;;;5047635;28;20037;-70
2021/01/25 05:51:21;;;;;;;24.90;16.83;;;4.70;70.20;;;;;;5023826;28;20083;-69
2021/01/25 05:53:47;;;;;;;23.63;16.37;;;4.60;70.60;;;;;;5040303;28;20053;-69
2021/01/25 05:56:15;;;;;;;24.07;16.00;;;4.50;71.00;;;;;;5022326;28;20102;-69
2021/01/25 05:58:41;;;;;;;24.33;17.23;;;4.50;71.10;;;;;;5035968;28;20036;-70
2021/01/25 06:01:08;;;;;;;26.50;18.57;;;4.60;71.10;;;;;;5045596;28;20025;-71
2021/01/25 06:03:38;;;;;;;30.97;19.63;;;4.60;70.90;;;;;;5043767;28;20049;-71
2021/01/25 06:06:16;;;;;;;27.50;18.87;;;4.60;71.00;;;;;;5032109;28;20087;-70
2021/01/25 06:08:59;;;;;;;28.03;17.50;;;4.60;71.00;;;;;;5022508;28;20037;-69
2021/01/25 06:11:30;;;;;;;;;;;4.50;71.50;;;;;;5049533;28;20458;-70
2021/01/25 06:14:21;;;;;;;32.67;20.63;;;4.50;71.30;;;;;;5049324;28;19908;-70
2021/01/25 06:16:50;;;;;;;29.57;18.50;;;4.50;71.40;;;;;;5048491;28;20024;-69
2021/01/25 06:19:19;;;;;;;30.57;19.20;;;4.50;71.30;;;;;;5041996;28;20110;-70
2021/01/25 06:21:47;;;;;;;31.97;19.77;;;4.50;71.20;;;;;;5011782;28;20090;-70
2021/01/25 06:24:14;;;;;;;31.07;19.03;;;4.60;71.00;;;;;;5020163;28;20475;-69
2021/01/25 06:26:40;;;;;;;33.10;21.90;;;4.70;70.80;;;;;;5026455;28;20266;-69
2021/01/25 06:29:09;;;;;;;30.60;20.63;;;4.70;70.70;;;;;;5041718;28;20500;-70
2021/01/25 06:31:35;;;;;;;30.40;19.77;;;4.70;70.50;;;;;;5036981;28;20112;-74
2021/01/25 06:34:06;;;;;;;28.13;20.30;;;4.80;70.50;;;;;;5051898;28;20033;-70
2021/01/25 06:36:33;;;;;;;29.67;19.80;;;4.80;70.30;;;;;;5044665;28;20480;-70
2021/01/25 06:39:04;;;;;;;32.00;19.43;;;4.80;70.20;;;;;;5036518;28;20040;-72
2021/01/25 06:41:39;;;;;;;30.90;20.07;;;4.80;70.10;;;;;;5042493;28;20510;-70
2021/01/25 06:44:06;;;;;;;35.87;20.57;;;4.90;70.00;;;;;;5022849;28;20033;-72
2021/01/25 06:46:35;;;;;;;32.17;19.03;;;4.80;69.80;;;;;;5045737;28;20068;-70
2021/01/25 06:49:01;;;;;;;28.03;19.07;;;4.80;69.80;;;;;;5037992;28;20025;-69
2021/01/25 06:51:28;;;;;;;33.97;21.77;;;4.80;69.80;;;;;;5028807;28;20036;-70
2021/01/25 06:53:58;;;;;;;30.33;19.43;;;4.80;69.60;;;;;;5046803;28;20037;-72
2021/01/25 06:56:24;;;;;;;29.73;18.90;;;4.80;69.60;;;;;;5040173;28;20029;-70
2021/01/25 06:58:50;;;;;;;32.40;19.97;;;4.80;69.50;;;;;;5029099;28;20336;-70
2021/01/25 07:01:22;;;;;;;34.73;20.73;;;4.80;69.60;;;;;;5031452;28;20033;-71
2021/01/25 07:03:58;;;;;;;29.33;19.07;;;4.80;69.60;;;;;;5042753;28;20053;-70
2021/01/25 07:06:35;;;;;;;32.33;19.03;;;4.70;69.60;;;;;;5061595;28;20109;-70
2021/01/25 07:09:04;;;;;;;32.10;20.30;;;4.70;69.50;;;;;;5060383;28;20037;-70
2021/01/25 07:11:31;;;;;;;31.87;21.00;;;4.70;69.60;;;;;;5061003;28;20028;-73
2021/01/25 07:13:57;;;;;;;33.07;22.03;;;4.70;69.70;;;;;;5063352;28;20040;-70
2021/01/25 07:16:24;;;;;;;29.73;20.13;;;4.70;69.70;;;;;;5062415;28;20041;-71
2021/01/25 07:18:51;;;;;;;33.00;20.97;;;4.70;69.70;;;;;;5071587;28;20162;-70
2021/01/25 07:21:18;;;;;;;31.63;19.57;;;4.70;69.70;;;;;;5062956;28;20052;-71
2021/01/25 07:23:45;;;;;;;30.47;19.40;;;4.70;69.80;;;;;;5059189;28;20032;-69
2021/01/25 07:26:13;;;;;;;31.07;20.33;;;4.70;69.80;;;;;;5067135;28;20029;-70
2021/01/25 07:28:40;;;;;;;32.97;20.30;;;4.70;69.70;;;;;;5070757;28;20794;-72
2021/01/25 07:31:07;;;;;;;31.50;19.80;;;4.70;69.70;;;;;;5067634;28;20094;-71
2021/01/25 07:33:32;;;;;;;32.83;20.33;;;4.70;69.60;;;;;;5064426;28;20043;-70
2021/01/25 07:35:58;;;;;;;31.03;19.40;;;4.70;69.60;;;;;;5060595;28;20033;-70
2021/01/25 07:38:27;;;;;;;32.70;19.53;;;4.70;69.60;;;;;;5068366;28;20120;-69
2021/01/25 07:40:58;;;;;;;31.10;19.00;;;4.80;69.60;;;;;;5060574;28;20824;-70
2021/01/25 07:43:31;;;;;;;28.40;18.20;;;4.80;69.60;;;;;;5068248;28;20028;-70
2021/01/25 07:46:08;;;;;;;31.55;18.70;;;4.80;69.50;;;;;;5057143;28;20047;-72
2021/01/25 07:48:35;;;;;;;34.37;22.17;;;4.80;69.50;;;;;;5066783;28;20485;-73
2021/01/25 07:51:01;;;;;;;34.07;20.73;;;4.80;69.40;;;;;;5052337;28;20025;-69
2021/01/25 07:53:36;;;;;;;27.93;18.80;;;4.80;69.40;;;;;;5053838;28;20079;-69
2021/01/25 07:56:04;;;;;;;27.87;18.50;;;4.80;69.30;;;;;;5058003;28;20031;-70
2021/01/25 07:58:30;;;;;;;33.90;20.73;;;4.80;69.20;;;;;;5064250;28;20551;-69
2021/01/25 08:00:55;;;;;;;27.60;16.87;;;4.80;69.10;;;;;;5050661;28;20052;-70
2021/01/25 08:03:26;;;;;;;32.03;19.77;;;4.80;69.00;;;;;;5043293;28;20048;-71
2021/01/25 08:05:54;;;;;;;30.43;20.60;;;4.80;68.90;;;;;;5057785;28;20020;-72
2021/01/25 08:08:21;;;;;;;27.47;18.10;;;4.80;69.00;;;;;;5065512;28;20024;-74
2021/01/25 08:10:48;;;;;;;27.63;17.53;;;4.90;69.10;;;;;;5062426;28;20052;-71
2021/01/25 08:13:16;;;;;;;38.30;21.40;;;4.90;69.10;;;;;;5037769;28;20039;-69
2021/01/25 08:16:09;;;;;;;32.37;20.70;;;4.90;69.10;;;;;;5058557;28;20090;-73
2021/01/25 08:18:50;;;;;;;32.03;19.50;;;4.90;69.10;;;;;;5065576;28;20501;-69
2021/01/25 08:21:24;;;;;;;32.73;20.77;;;5.00;69.10;;;;;;5059871;28;20458;-70
2021/01/25 08:23:52;;;;;;;34.10;21.73;;;5.10;69.20;;;;;;5067166;28;20036;-69
2021/01/25 08:26:24;;;;;;;42.03;22.57;;;5.00;69.10;;;;;;5067736;28;20527;-70
2021/01/25 08:28:59;;;;;;;31.53;19.93;;;5.00;69.10;;;;;;5067983;28;20020;-70
2021/01/25 08:31:46;;;;;;;31.97;20.93;;;5.10;69.10;;;;;;5062923;28;20021;-76
2021/01/25 08:34:29;;;;;;;33.93;20.10;;;5.20;68.90;;;;;;5058333;28;20052;-70
2021/01/25 08:37:10;;;;;;;32.35;20.75;;;5.40;68.60;;;;;;5066444;28;20028;-71
2021/01/25 08:39:42;;;;;;;27.13;18.40;;;6.10;68.30;;;;;;5065645;28;20024;-69
2021/01/25 08:42:21;;;;;;;29.67;19.33;;;7.70;64.90;;;;;;5071771;28;20069;-69
2021/01/25 08:44:54;;;;;;;27.53;16.10;;;9.90;59.00;;;;;;5061074;28;20028;-74
2021/01/25 08:47:28;;;;;;;29.33;17.00;;;11.80;53.50;;;;;;5068044;28;20696;-69
2021/01/25 08:49:54;;;;;;;23.52;16.30;;;13.50;49.10;;;;;;5062557;28;20029;-71
2021/01/25 08:52:30;;;;;;;22.10;14.15;;;14.80;45.10;;;;;;5067391;28;20454;-69
2021/01/25 08:55:05;;;;;;;20.83;13.80;;;15.50;42.50;;;;;;5059654;28;20025;-70
2021/01/25 08:57:37;;;;;;;19.70;14.05;;;16.30;40.50;;;;;;5055317;28;20450;-75
2021/01/25 09:00:16;;;;;;;17.05;12.43;;;17.10;38.60;;;;;;5063818;28;20474;-71
2021/01/25 09:02:44;;;;;;;18.02;12.40;;;18.00;37.30;;;;;;5060912;28;20028;-72
2021/01/25 09:05:12;;;;;;;19.98;13.20;;;19.00;35.80;;;;;;5031321;28;20045;-70
2021/01/25 09:07:37;;;;;;;15.90;12.70;;;19.80;34.40;;;;;;5025541;28;20025;-71
2021/01/25 09:10:05;;;;;;;18.27;12.82;;;20.60;32.80;;;;;;5020666;28;20502;-70
2021/01/25 09:12:30;;;;;;;15.52;11.65;;;21.30;31.30;;;;;;5004379;28;20052;-73
2021/01/25 09:14:57;;;;;;;14.43;12.20;;;21.70;30.80;;;;;;5042928;28;20426;-70
2021/01/25 09:17:24;;;;;;;18.45;11.88;;;21.80;30.00;;;;;;5025917;28;20128;-70
2021/01/25 09:19:50;;;;;;;16.38;11.98;;;21.40;30.70;;;;;;5033381;28;20060;-71
2021/01/25 09:22:16;;;;;;;15.77;11.75;;;20.20;31.30;;;;;;5047243;28;20485;-69
2021/01/25 09:24:42;;;;;;;17.95;13.15;;;18.80;33.00;;;;;;5034806;28;20036;-70
2021/01/25 09:27:09;;;;;;;17.20;12.30;;;17.30;34.90;;;;;;5028053;28;20028;-76
2021/01/25 09:29:35;;;;;;;17.20;13.68;;;16.00;37.00;;;;;;5039109;28;20025;-70
2021/01/25 09:32:01;;;;;;;17.15;12.30;;;14.90;39.10;;;;;;5021654;28;20454;-71
2021/01/25 09:34:27;;;;;;;18.75;13.15;;;14.00;40.80;;;;;;5016449;28;20037;-72
2021/01/25 09:36:52;;;;;;;14.73;10.93;;;13.10;42.90;;;;;;5040306;28;20095;-70
2021/01/25 09:39:18;;;;;;;17.35;11.77;;;12.40;44.40;;;;;;5028687;28;20084;-70
2021/01/25 09:41:46;;;;;;;16.58;10.90;;;11.90;46.00;;;;;;5030635;28;20143;-72
2021/01/25 09:44:13;;;;;;;20.33;13.25;;;11.40;47.00;;;;;;5044442;28;20033;-70
2021/01/25 09:46:41;;;;;;;20.60;11.27;;;10.90;47.80;;;;;;5039467;28;20554;-70
2021/01/25 09:49:08;;;;;;;15.80;10.15;;;10.30;48.80;;;;;;5031637;28;20348;-70
2021/01/25 09:51:34;;;;;;;19.45;12.65;;;9.70;50.40;;;;;;5048740;28;20029;-70
2021/01/25 09:53:59;;;;;;;17.70;11.02;;;9.10;51.80;;;;;;5025275;28;20115;-72
2021/01/25 09:56:25;;;;;;;19.38;10.95;;;8.60;53.20;;;;;;5030717;28;20471;-70
2021/01/25 09:58:51;;;;;;;16.33;10.48;;;8.20;54.60;;;;;;5048164;28;20068;-70
2021/01/25 10:01:16;;;;;;;16.73;10.38;;;7.80;55.60;;;;;;5046462;28;20506;-70
2021/01/25 10:03:42;;;;;;;17.77;11.15;;;7.60;56.40;;;;;;5040192;28;20494;-69
2021/01/25 10:06:08;;;;;;;20.80;12.80;;;7.40;57.30;;;;;;5047536;28;20120;-72
2021/01/25 10:08:36;;;;;;;17.00;11.50;;;7.20;58.20;;;;;;5072275;28;20036;-69
2021/01/25 10:11:02;;;;;;;20.67;12.33;;;7.00;58.60;;;;;;5063496;28;20456;-69
2021/01/25 10:13:28;;;;;;;19.38;11.25;;;6.90;59.00;;;;;;5052458;28;20037;-70
2021/01/25 10:15:53;;;;;;;19.00;12.43;;;6.80;59.40;;;;;;5061256;28;20044;-69
2021/01/25 10:18:19;;;;;;;18.93;10.97;;;6.80;59.70;;;;;;5066654;28;20132;-76
2021/01/25 10:20:44;;;;;;;18.20;11.20;;;6.80;59.80;;;;;;5067973;28;20041;-70
2021/01/25 10:23:10;;;;;;;20.77;11.57;;;6.80;60.40;;;;;;5071039;28;20047;-69
2021/01/25 10:25:36;;;;;;;20.10;12.17;;;6.80;60.40;;;;;;5051037;28;20103;-70
2021/01/25 10:28:01;;;;;;;19.40;10.97;;;6.70;60.90;;;;;;5065643;28;20032;-78
2021/01/25 10:30:28;;;;;;;19.17;11.13;;;6.70;61.10;;;;;;5059353;28;20033;-71
2021/01/25 10:32:54;;;;;;;19.83;12.47;;;6.70;61.30;;;;;;5054833;28;20071;-73
2021/01/25 10:35:19;;;;;;;20.63;12.73;;;6.70;61.30;;;;;;5072088;28;20063;-69
2021/01/25 10:37:46;;;;;;;20.43;11.60;;;6.70;61.40;;;;;;5057914;28;20113;-69
2021/01/25 10:40:14;;;;;;;19.47;12.53;;;6.70;61.70;;;;;;5048301;28;20533;-69
2021/01/25 10:42:40;;;;;;;22.80;11.50;;;6.80;61.60;;;;;;5067407;28;20040;-69
2021/01/25 10:45:07;;;;;;;19.97;11.83;;;6.80;61.50;;;;;;5064012;28;20032;-69
2021/01/25 10:47:32;;;;;;;15.93;10.70;;;6.90;61.40;;;;;;5053609;28;20048;-68
2021/01/25 10:49:58;;;;;;;18.47;11.60;;;7.00;61.40;;;;;;5068896;28;20040;-69
2021/01/25 10:52:23;;;;;;;19.90;10.57;;;7.10;60.90;;;;;;5067457;28;20029;-69
2021/01/25 10:54:49;;;;;;;18.17;11.50;;;7.20;60.50;;;;;;5057057;28;20044;-71
2021/01/25 10:57:15;;;;;;;19.07;10.17;;;8.70;61.50;;;;;;5072015;28;20449;-69
2021/01/25 10:59:40;;;;;;;25.77;11.60;;;7.10;60.60;;;;;;5069692;28;20355;-68
2021/01/25 11:02:07;;;;;;;17.60;10.57;;;7.10;60.70;;;;;;5070508;28;20027;-69
2021/01/25 11:04:33;;;;;;;17.80;9.73;;;7.20;60.70;;;;;;5056763;28;20570;-69
2021/01/25 11:06:59;;;;;;;17.27;11.10;;;7.30;60.60;;;;;;5039233;28;20529;-69
2021/01/25 11:09:24;;;;;;;17.57;11.50;;;7.20;60.00;;;;;;5062294;28;20048;-68
2021/01/25 11:11:50;;;;;;;17.90;10.80;;;7.20;59.90;;;;;;5057519;28;20105;-70
2021/01/25 11:14:17;;;;;;;17.37;10.27;;;7.20;59.90;;;;;;5065627;28;20440;-69
2021/01/25 11:16:42;;;;;;;19.03;10.37;;;7.30;60.00;;;;;;5067671;28;20035;-68
2021/01/25 11:19:09;;;;;;;18.37;10.13;;;7.30;60.20;;;;;;5063420;28;20489;-69
2021/01/25 11:21:35;;;;;;;16.00;10.13;;;7.40;59.80;;;;;;5056753;28;20029;-69
2021/01/25 11:24:00;;;;;;;18.37;12.27;;;7.40;59.70;;;;;;5052765;28;20090;-69
2021/01/25 11:26:27;;;;;;;22.63;13.03;;;7.40;60.00;;;;;;5055342;28;20087;-75
2021/01/25 11:28:53;;;;;;;17.23;10.27;;;7.60;60.30;;;;;;5065335;28;20483;-71
2021/01/25 11:31:19;;;;;;;17.80;10.57;;;7.60;60.00;;;;;;5068917;28;20028;-69
2021/01/25 11:33:44;;;;;;;18.37;10.90;;;7.70;59.80;;;;;;5071628;28;20068;-69
2021/01/25 11:36:10;;;;;;;17.67;9.77;;;7.80;59.40;;;;;;5072060;28;20044;-69
2021/01/25 11:38:36;;;;;;;15.70;9.93;;;7.90;59.00;;;;;;5070361;28;20040;-68
2021/01/25 11:41:03;;;;;;;19.40;11.07;;;8.10;58.30;;;;;;5070590;28;20344;-69
2021/01/25 11:43:28;;;;;;;15.27;9.13;;;8.50;57.50;;;;;;5070895;28;20040;-68
2021/01/25 11:45:54;;;;;;;19.95;9.82;;;9.60;56.00;;;;;;5071146;28;20093;-69
2021/01/25 11:48:20;;;;;;;18.75;10.13;;;10.90;53.20;;;;;;5064526;28;20029;-73
2021/01/25 11:50:47;;;;;;;15.75;9.90;;;11.70;51.30;;;;;;5067499;28;20040;-70
2021/01/25 11:53:13;;;;;;;15.40;10.40;;;11.90;50.10;;;;;;5052035;28;20105;-68
2021/01/25 11:55:41;;;;;;;17.10;9.18;;;11.90;50.70;;;;;;5058405;28;20040;-71
2021/01/25 11:58:10;;;;;;;18.80;11.15;;;11.60;50.80;;;;;;5071779;28;20067;-69
2021/01/25 12:00:35;;;;;;;18.73;11.15;;;11.10;50.60;;;;;;5058495;28;20036;-69
2021/01/25 12:03:01;;;;;;;18.48;11.32;;;10.60;51.30;;;;;;5071790;28;20039;-70
2021/01/25 12:05:27;;;;;;;17.88;11.38;;;10.30;52.20;;;;;;5053083;28;20048;-69
2021/01/25 12:07:53;;;;;;;15.43;9.52;;;10.10;52.80;;;;;;5052179;28;20163;-68
2021/01/25 12:10:18;;;;;;;21.45;12.30;;;9.90;53.50;;;;;;5021397;28;20053;-74
2021/01/25 12:12:44;;;;;;;19.05;12.68;;;9.10;54.10;;;;;;5016653;28;20025;-70
2021/01/25 12:15:10;;;;;;;19.02;11.50;;;9.70;55.00;;;;;;5050147;28;20033;-71
2021/01/25 12:17:36;;;;;;;20.52;11.50;;;9.70;55.20;;;;;;5019758;28;20060;-69
2021/01/25 12:20:03;;;;;;;19.55;13.38;;;9.80;55.30;;;;;;5015696;28;20124;-68
2021/01/25 12:22:28;;;;;;;21.48;13.07;;;9.70;55.40;;;;;;5023753;28;20075;-69
2021/01/25 12:24:54;;;;;;;21.35;10.60;;;9.70;55.20;;;;;;5036488;28;20029;-70
2021/01/25 12:27:20;;;;;;;17.25;9.73;;;9.70;54.50;;;;;;5043944;28;20561;-68
2021/01/25 12:29:45;;;;;;;17.23;10.00;;;9.60;54.70;;;;;;5010554;28;20033;-69
2021/01/25 12:32:11;;;;;;;17.55;10.25;;;9.60;55.20;;;;;;5029490;28;20025;-69
2021/01/25 12:34:37;;;;;;;12.95;7.88;;;9.60;53.70;;;;;;5041803;28;20079;-69
2021/01/25 12:37:04;;;;;;;12.95;6.95;;;9.50;53.60;;;;;;5016036;28;20063;-68